Time;durP1;ratioP1;P1;durP2;ratioP2;P2;SDS_P1;SDS_P2;PMS_P1;PMS_P2;Temp;Humidity;BMP_temperature;BMP_pressure;BME280_temperature;BME280_humidity;BME280_pressure;Samples;Min_cycle;Max_cycle;Signal;HPM_P1;HPM_P2
2021/09/09 00:01:18;;;;;;;31.00;12.90;;;;;;;;;;4935694;29;20050;-46
2021/09/09 00:03:44;;;;;;;29.33;8.93;;;;;;;;;;4935833;29;20099;-49
2021/09/09 00:06:10;;;;;;;25.48;8.98;;;;;;;;;;4935618;29;20039;-50
2021/09/09 00:08:36;;;;;;;24.00;7.13;;;;;;;;;;4935599;29;20054;-49
2021/09/09 00:11:04;;;;;;;23.63;8.00;;;;;;;;;;4941846;29;20028;-47
2021/09/09 00:13:30;;;;;;;15.75;7.38;;;;;;;;;;4941937;29;20415;-49
2021/09/09 00:15:57;;;;;;;17.70;7.28;;;;;;;;;;4941876;29;20074;-49
2021/09/09 00:18:23;;;;;;;15.20;7.35;;;;;;;;;;4942154;29;20099;-48
2021/09/09 00:20:49;;;;;;;15.80;6.18;;;;;;;;;;4942012;29;20027;-49
2021/09/09 00:23:15;;;;;;;20.90;7.55;;;;;;;;;;4941963;29;20447;-43
2021/09/09 00:25:41;;;;;;;22.45;9.77;;;;;;;;;;4941953;29;20088;-44
2021/09/09 00:28:07;;;;;;;18.42;7.57;;;;;;;;;;4941929;29;20103;-46
2021/09/09 00:30:33;;;;;;;16.38;7.00;;;;;;;;;;4942043;29;20060;-45
2021/09/09 00:32:59;;;;;;;14.02;6.03;;;;;;;;;;4941949;29;20123;-45
2021/09/09 00:35:25;;;;;;;15.32;5.90;;;;;;;;;;4942115;29;20024;-47
2021/09/09 00:37:51;;;;;;;11.15;5.88;;;;;;;;;;4941760;29;20063;-47
2021/09/09 00:40:17;;;;;;;16.08;6.45;;;;;;;;;;4941877;29;20107;-49
2021/09/09 00:42:43;;;;;;;13.32;5.63;;;;;;;;;;4941696;29;20023;-49
2021/09/09 00:45:10;;;;;;;22.45;10.20;;;;;;;;;;4941804;29;20036;-48
2021/09/09 00:47:36;;;;;;;25.77;12.15;;;;;;;;;;4941677;29;20473;-45
2021/09/09 00:50:02;;;;;;;16.90;9.65;;;;;;;;;;4941742;29;20037;-45
2021/09/09 00:52:28;;;;;;;22.00;8.82;;;;;;;;;;4941829;29;20034;-46
2021/09/09 00:54:55;;;;;;;15.68;7.13;;;;;;;;;;4941827;29;20039;-45
2021/09/09 00:57:21;;;;;;;15.82;5.47;;;;;;;;;;4941689;29;20023;-46
2021/09/09 00:59:48;;;;;;;20.25;8.20;;;;;;;;;;4941578;29;20023;-46
2021/09/09 01:02:14;;;;;;;11.18;4.30;;;;;;;;;;4941528;29;20024;-47
2021/09/09 01:04:42;;;;;;;11.95;3.95;;;;;;;;;;4941663;29;20070;-46
2021/09/09 01:07:09;;;;;;;10.80;4.95;;;;;;;;;;4941378;29;20039;-47
2021/09/09 01:09:38;;;;;;;13.77;4.85;;;;;;;;;;4941543;29;20032;-45
2021/09/09 01:12:04;;;;;;;8.75;4.40;;;;;;;;;;4941544;29;20036;-48
2021/09/09 01:14:30;;;;;;;14.02;4.63;;;;;;;;;;4941488;29;20036;-47
2021/09/09 01:16:56;;;;;;;8.52;3.92;;;;;;;;;;4941685;29;20360;-45
2021/09/09 01:19:24;;;;;;;11.52;4.70;;;;;;;;;;4941558;29;20031;-46
2021/09/09 01:21:51;;;;;;;11.52;4.15;;;;;;;;;;4938706;29;20020;-46
2021/09/09 01:24:18;;;;;;;8.52;4.60;;;;;;;;;;4938424;29;20043;-47
2021/09/09 01:27:01;;;;;;;11.48;4.35;;;;;;;;;;4938355;29;20079;-48
2021/09/09 01:29:37;;;;;;;11.98;4.72;;;;;;;;;;4938385;29;20044;-45
2021/09/09 01:32:03;;;;;;;7.32;4.20;;;;;;;;;;4938210;29;20028;-46
2021/09/09 01:34:30;;;;;;;11.82;3.97;;;;;;;;;;4938124;29;20032;-46
2021/09/09 01:36:56;;;;;;;11.70;4.32;;;;;;;;;;4938345;29;20036;-48
2021/09/09 01:39:23;;;;;;;10.75;5.22;;;;;;;;;;4938294;29;20027;-47
2021/09/09 01:41:50;;;;;;;11.88;5.55;;;;;;;;;;4938186;29;20051;-46
2021/09/09 01:44:16;;;;;;;10.75;5.80;;;;;;;;;;4938184;29;20035;-47
2021/09/09 01:46:42;;;;;;;15.80;6.38;;;;;;;;;;4938249;29;20048;-45
2021/09/09 01:49:09;;;;;;;14.68;6.53;;;;;;;;;;4938243;29;20035;-46
2021/09/09 01:51:35;;;;;;;13.98;6.43;;;;;;;;;;4938150;29;20028;-45
2021/09/09 01:54:01;;;;;;;19.42;7.45;;;;;;;;;;4937982;29;20035;-45
2021/09/09 01:56:27;;;;;;;20.55;6.25;;;;;;;;;;4937909;29;20027;-46
2021/09/09 01:58:53;;;;;;;12.57;6.07;;;;;;;;;;4938070;29;20168;-47
2021/09/09 02:01:19;;;;;;;13.32;5.70;;;;;;;;;;4937879;29;20024;-48
2021/09/09 02:03:48;;;;;;;10.63;5.55;;;;;;;;;;4937940;29;20119;-46
2021/09/09 02:06:16;;;;;;;9.68;5.13;;;;;;;;;;4937790;29;20023;-48
2021/09/09 02:08:43;;;;;;;12.15;5.93;;;;;;;;;;4937661;29;20401;-46
2021/09/09 02:11:09;;;;;;;7.28;4.43;;;;;;;;;;4937829;29;20032;-45
2021/09/09 02:13:35;;;;;;;11.70;4.88;;;;;;;;;;4937635;29;20023;-47
2021/09/09 02:16:01;;;;;;;9.48;4.63;;;;;;;;;;4938195;29;20027;-46
2021/09/09 02:18:27;;;;;;;8.13;4.47;;;;;;;;;;4937528;29;20107;-46
2021/09/09 02:20:56;;;;;;;8.80;4.65;;;;;;;;;;4937695;29;20074;-46
2021/09/09 02:23:22;;;;;;;10.05;4.88;;;;;;;;;;4937612;29;20043;-46
2021/09/09 02:25:48;;;;;;;8.80;4.45;;;;;;;;;;4937394;29;20016;-46
2021/09/09 02:28:15;;;;;;;10.35;4.30;;;;;;;;;;4937702;29;20391;-45
2021/09/09 02:30:42;;;;;;;13.40;4.35;;;;;;;;;;4937387;29;20055;-47
2021/09/09 02:33:08;;;;;;;13.48;4.82;;;;;;;;;;4936134;29;20532;-46
2021/09/09 02:35:34;;;;;;;9.77;4.53;;;;;;;;;;4937562;29;20389;-46
2021/09/09 02:38:00;;;;;;;11.02;4.05;;;;;;;;;;4937234;29;20115;-47
2021/09/09 02:40:26;;;;;;;8.73;3.97;;;;;;;;;;4937013;29;20040;-46
2021/09/09 02:42:52;;;;;;;8.80;4.15;;;;;;;;;;4937095;29;20027;-48
2021/09/09 02:45:19;;;;;;;6.15;3.55;;;;;;;;;;4937107;29;20032;-48
2021/09/09 02:47:45;;;;;;;12.20;3.22;;;;;;;;;;4937203;29;20154;-47
2021/09/09 02:50:13;;;;;;;8.07;4.22;;;;;;;;;;4936988;29;20477;-48
2021/09/09 02:52:42;;;;;;;12.68;3.53;;;;;;;;;;4936918;29;20484;-47
2021/09/09 02:55:09;;;;;;;7.55;4.00;;;;;;;;;;4936887;29;20028;-47
2021/09/09 02:57:35;;;;;;;14.65;3.25;;;;;;;;;;4936967;29;20034;-46
2021/09/09 03:00:01;;;;;;;9.07;3.35;;;;;;;;;;4936965;29;20034;-47
2021/09/09 03:02:27;;;;;;;7.72;3.42;;;;;;;;;;4936903;29;20035;-48
2021/09/09 03:04:53;;;;;;;9.75;3.88;;;;;;;;;;4936698;29;20067;-47
2021/09/09 03:07:19;;;;;;;9.77;3.20;;;;;;;;;;4936525;29;20046;-46
2021/09/09 03:09:46;;;;;;;6.55;3.47;;;;;;;;;;4936737;29;20047;-47
2021/09/09 03:12:12;;;;;;;6.00;3.50;;;;;;;;;;4936594;29;20473;-48
2021/09/09 03:14:40;;;;;;;9.50;3.08;;;;;;;;;;4936775;29;20059;-46
2021/09/09 03:17:06;;;;;;;5.40;3.45;;;;;;;;;;4936666;29;20417;-48
2021/09/09 03:19:32;;;;;;;7.70;3.63;;;;;;;;;;4936573;29;20031;-47
2021/09/09 03:21:58;;;;;;;10.23;3.83;;;;;;;;;;4936565;29;20024;-47
2021/09/09 03:24:24;;;;;;;9.15;3.70;;;;;;;;;;4936398;29;20126;-45
2021/09/09 03:26:50;;;;;;;8.75;3.65;;;;;;;;;;4936309;29;20032;-48
2021/09/09 03:29:17;;;;;;;16.05;6.60;;;;;;;;;;4936624;29;20497;-47
2021/09/09 03:31:43;;;;;;;9.93;4.70;;;;;;;;;;4936491;29;20035;-48
2021/09/09 03:34:09;;;;;;;17.42;6.97;;;;;;;;;;4936223;29;20031;-46
2021/09/09 03:36:35;;;;;;;12.88;5.47;;;;;;;;;;4936153;29;20027;-47
2021/09/09 03:39:02;;;;;;;15.63;7.55;;;;;;;;;;4936178;29;20074;-49
2021/09/09 03:41:28;;;;;;;24.17;8.65;;;;;;;;;;4936052;29;20387;-47
2021/09/09 03:43:54;;;;;;;19.95;9.73;;;;;;;;;;4935817;29;20042;-47
2021/09/09 03:46:20;;;;;;;17.92;8.32;;;;;;;;;;4936101;29;20088;-47
2021/09/09 03:48:46;;;;;;;12.45;5.35;;;;;;;;;;4936002;29;20150;-47
2021/09/09 03:51:12;;;;;;;14.23;5.32;;;;;;;;;;4936081;29;20062;-46
2021/09/09 03:53:38;;;;;;;11.55;4.85;;;;;;;;;;4936225;29;20023;-47
2021/09/09 03:56:04;;;;;;;12.50;5.50;;;;;;;;;;4935929;29;20024;-44
2021/09/09 03:58:31;;;;;;;8.50;4.90;;;;;;;;;;4935940;29;20388;-47
2021/09/09 04:00:57;;;;;;;13.45;5.15;;;;;;;;;;4936174;29;20509;-44
2021/09/09 04:03:23;;;;;;;10.73;6.28;;;;;;;;;;4935899;29;20059;-45
2021/09/09 04:05:49;;;;;;;9.57;4.78;;;;;;;;;;4935964;29;20062;-45
2021/09/09 04:08:15;;;;;;;6.07;4.07;;;;;;;;;;4935671;29;20107;-45
2021/09/09 04:10:41;;;;;;;6.65;3.92;;;;;;;;;;4935740;29;20032;-45
2021/09/09 04:13:07;;;;;;;9.52;4.10;;;;;;;;;;4935808;29;20126;-44
2021/09/09 04:15:33;;;;;;;9.25;4.55;;;;;;;;;;4935823;29;20035;-44
2021/09/09 04:18:00;;;;;;;7.50;4.10;;;;;;;;;;4935720;29;20487;-45
2021/09/09 04:20:26;;;;;;;7.95;4.82;;;;;;;;;;4936033;29;20073;-45
2021/09/09 04:22:52;;;;;;;11.75;4.40;;;;;;;;;;4935529;29;20532;-46
2021/09/09 04:25:18;;;;;;;8.32;3.80;;;;;;;;;;4935634;29;20116;-45
2021/09/09 04:27:44;;;;;;;9.43;3.80;;;;;;;;;;4935662;29;20046;-45
2021/09/09 04:30:13;;;;;;;11.50;4.13;;;;;;;;;;4935794;29;20028;-46
2021/09/09 04:32:39;;;;;;;12.15;4.28;;;;;;;;;;4935672;29;20511;-44
2021/09/09 04:35:05;;;;;;;9.60;4.05;;;;;;;;;;4935488;29;20028;-45
2021/09/09 04:37:33;;;;;;;8.90;4.00;;;;;;;;;;4935483;29;20547;-44
2021/09/09 04:40:00;;;;;;;10.13;4.00;;;;;;;;;;4935811;29;20062;-45
2021/09/09 04:42:26;;;;;;;10.48;3.28;;;;;;;;;;4935516;29;20103;-46
2021/09/09 04:44:52;;;;;;;10.73;3.72;;;;;;;;;;4935418;29;20094;-45
2021/09/09 04:47:18;;;;;;;10.10;3.10;;;;;;;;;;4935436;29;20445;-45
2021/09/09 04:49:44;;;;;;;6.82;3.42;;;;;;;;;;4935624;29;20024;-45
2021/09/09 04:52:10;;;;;;;9.07;3.58;;;;;;;;;;4935488;29;20051;-45
2021/09/09 04:54:36;;;;;;;8.48;3.67;;;;;;;;;;4935494;29;20395;-45
2021/09/09 04:57:02;;;;;;;4.97;3.08;;;;;;;;;;4937246;29;20028;-44
2021/09/09 04:59:28;;;;;;;11.65;3.90;;;;;;;;;;4948351;29;20035;-45
2021/09/09 05:01:54;;;;;;;7.63;4.25;;;;;;;;;;4938788;29;20027;-48
2021/09/09 05:04:21;;;;;;;8.15;3.58;;;;;;;;;;4941994;29;20121;-49
2021/09/09 05:06:47;;;;;;;12.20;4.28;;;;;;;;;;4957829;29;20035;-49
2021/09/09 05:09:13;;;;;;;9.75;6.13;;;;;;;;;;4957687;29;20046;-48
2021/09/09 05:11:39;;;;;;;15.30;5.22;;;;;;;;;;4955473;29;20479;-49
2021/09/09 05:14:05;;;;;;;7.25;4.20;;;;;;;;;;4948837;29;20038;-49
2021/09/09 05:16:31;;;;;;;10.57;4.72;;;;;;;;;;4941325;29;20111;-50
2021/09/09 05:18:57;;;;;;;7.53;3.83;;;;;;;;;;4938574;29;20033;-50
2021/09/09 05:21:23;;;;;;;8.82;3.85;;;;;;;;;;4938644;29;20020;-50
2021/09/09 05:23:49;;;;;;;9.02;3.85;;;;;;;;;;4938554;29;20039;-50
2021/09/09 05:26:15;;;;;;;6.13;3.22;;;;;;;;;;4938533;29;20373;-52
2021/09/09 05:28:41;;;;;;;8.45;3.83;;;;;;;;;;4938431;29;20028;-51
2021/09/09 05:31:07;;;;;;;10.52;3.55;;;;;;;;;;4938347;29;20059;-50
2021/09/09 05:33:33;;;;;;;14.85;4.40;;;;;;;;;;4938505;29;20476;-45
2021/09/09 05:36:00;;;;;;;6.72;3.92;;;;;;;;;;4938402;29;20028;-51
2021/09/09 05:38:26;;;;;;;9.82;3.67;;;;;;;;;;4938416;29;20148;-51
2021/09/09 05:40:52;;;;;;;9.93;3.83;;;;;;;;;;4938311;29;20030;-51
2021/09/09 05:43:18;;;;;;;9.90;3.70;;;;;;;;;;4938028;29;20551;-49
2021/09/09 05:45:44;;;;;;;7.75;3.33;;;;;;;;;;4938128;29;20071;-48
2021/09/09 05:48:10;;;;;;;6.00;3.33;;;;;;;;;;4938105;29;20035;-47
2021/09/09 05:50:36;;;;;;;9.45;3.45;;;;;;;;;;4938201;29;20395;-47
2021/09/09 05:53:02;;;;;;;7.07;3.35;;;;;;;;;;4937969;29;20034;-48
2021/09/09 05:55:28;;;;;;;10.13;2.90;;;;;;;;;;4938013;29;20028;-47
2021/09/09 05:57:55;;;;;;;7.88;3.63;;;;;;;;;;4938003;29;20052;-48
2021/09/09 06:00:21;;;;;;;7.63;3.88;;;;;;;;;;4938053;29;20015;-50
2021/09/09 06:02:48;;;;;;;10.90;4.32;;;;;;;;;;4937694;29;20054;-49
2021/09/09 06:05:15;;;;;;;6.38;3.40;;;;;;;;;;4938082;29;20032;-50
2021/09/09 06:07:41;;;;;;;8.20;3.58;;;;;;;;;;4937356;29;20036;-49
2021/09/09 06:10:11;;;;;;;12.13;3.60;;;;;;;;;;4937719;29;20039;-49
2021/09/09 06:12:37;;;;;;;6.45;3.67;;;;;;;;;;4937737;29;20047;-46
2021/09/09 06:15:04;;;;;;;6.60;3.15;;;;;;;;;;4938046;29;20059;-44
2021/09/09 06:17:30;;;;;;;7.20;3.50;;;;;;;;;;4938213;29;20020;-44
2021/09/09 06:19:56;;;;;;;8.60;3.42;;;;;;;;;;4937815;29;20024;-44
2021/09/09 06:22:22;;;;;;;9.65;3.30;;;;;;;;;;4936460;29;20396;-44
2021/09/09 06:24:48;;;;;;;8.70;3.42;;;;;;;;;;4937598;29;20032;-47
2021/09/09 06:27:15;;;;;;;7.07;3.47;;;;;;;;;;4937621;29;20364;-46
2021/09/09 06:29:41;;;;;;;7.80;3.80;;;;;;;;;;4937544;29;20362;-44
2021/09/09 06:32:07;;;;;;;10.43;3.70;;;;;;;;;;4937848;29;20028;-45
2021/09/09 06:34:33;;;;;;;8.52;3.50;;;;;;;;;;4937599;29;20024;-45
2021/09/09 06:36:59;;;;;;;9.65;3.08;;;;;;;;;;4937404;29;20031;-43
2021/09/09 06:39:25;;;;;;;6.07;2.80;;;;;;;;;;4937399;29;20035;-44
2021/09/09 06:41:52;;;;;;;7.50;2.92;;;;;;;;;;4937451;29;20186;-45
2021/09/09 06:44:18;;;;;;;7.28;3.17;;;;;;;;;;4937258;29;20054;-48
2021/09/09 06:46:44;;;;;;;8.30;3.13;;;;;;;;;;4937380;29;20024;-47
2021/09/09 06:49:10;;;;;;;9.18;3.72;;;;;;;;;;4937184;29;20028;-45
2021/09/09 06:51:42;;;;;;;5.65;2.83;;;;;;;;;;4937313;29;20096;-48
2021/09/09 06:54:09;;;;;;;;;;;;;;;;;;4937530;29;20039;-46
2021/09/09 06:56:35;;;;;;;8.05;3.00;;;;;;;;;;4937136;29;19907;-47
2021/09/09 06:59:01;;;;;;;7.40;2.97;;;;;;;;;;4937259;29;20035;-44
2021/09/09 07:01:27;;;;;;;8.80;3.10;;;;;;;;;;4937234;29;20031;-44
2021/09/09 07:03:54;;;;;;;9.93;3.40;;;;;;;;;;4937073;29;20589;-45
2021/09/09 07:06:22;;;;;;;6.28;2.83;;;;;;;;;;4935629;29;20028;-49
2021/09/09 07:08:48;;;;;;;8.93;2.92;;;;;;;;;;4936978;29;20057;-44
2021/09/09 07:11:14;;;;;;;6.05;2.45;;;;;;;;;;4937035;29;20028;-45
2021/09/09 07:13:40;;;;;;;6.45;2.78;;;;;;;;;;4936884;29;20051;-46
2021/09/09 07:16:06;;;;;;;6.55;2.67;;;;;;;;;;4936821;29;20035;-47
2021/09/09 07:18:34;;;;;;;8.05;2.63;;;;;;;;;;4936435;29;20385;-49
2021/09/09 07:21:00;;;;;;;9.73;2.58;;;;;;;;;;4936439;29;20027;-50
2021/09/09 07:23:27;;;;;;;6.10;2.70;;;;;;;;;;4936741;29;20036;-48
2021/09/09 07:25:53;;;;;;;5.20;2.90;;;;;;;;;;4936686;29;20381;-47
2021/09/09 07:28:19;;;;;;;7.97;3.33;;;;;;;;;;4936521;29;20028;-46
2021/09/09 07:30:45;;;;;;;5.25;2.67;;;;;;;;;;4936820;29;20385;-48
2021/09/09 07:33:14;;;;;;;9.18;2.63;;;;;;;;;;4936469;29;20024;-48
2021/09/09 07:35:40;;;;;;;5.10;2.40;;;;;;;;;;4936304;29;20407;-45
2021/09/09 07:38:06;;;;;;;10.98;2.25;;;;;;;;;;4936091;29;20027;-49
2021/09/09 07:40:32;;;;;;;8.68;2.42;;;;;;;;;;4936419;29;20036;-48
2021/09/09 07:42:58;;;;;;;10.52;6.18;;;;;;;;;;4936157;29;20375;-47
2021/09/09 07:45:25;;;;;;;8.20;3.00;;;;;;;;;;4936269;29;20389;-47
2021/09/09 07:47:51;;;;;;;11.50;3.72;;;;;;;;;;4936197;29;20476;-46
2021/09/09 07:50:17;;;;;;;11.45;2.88;;;;;;;;;;4935965;29;20531;-48
2021/09/09 07:52:43;;;;;;;12.68;5.07;;;;;;;;;;4935969;29;20024;-50
2021/09/09 07:55:10;;;;;;;46.97;15.48;;;;;;;;;;4936064;29;20027;-46
2021/09/09 07:57:36;;;;;;;23.98;8.32;;;;;;;;;;4935910;29;20028;-45
2021/09/09 08:00:04;;;;;;;12.77;5.25;;;;;;;;;;4935904;29;20464;-49
2021/09/09 08:02:30;;;;;;;40.35;20.38;;;;;;;;;;4935905;29;20027;-46
2021/09/09 08:04:56;;;;;;;42.45;19.75;;;;;;;;;;4935770;29;20473;-47
2021/09/09 08:07:22;;;;;;;17.60;7.13;;;;;;;;;;4935715;29;20052;-46
2021/09/09 08:09:48;;;;;;;17.83;8.85;;;;;;;;;;4935594;29;20086;-46
2021/09/09 08:12:14;;;;;;;24.30;11.82;;;;;;;;;;4935903;29;20107;-45
2021/09/09 08:14:40;;;;;;;17.35;9.65;;;;;;;;;;4935653;29;20036;-47
2021/09/09 08:17:06;;;;;;;12.25;5.72;;;;;;;;;;4935761;29;20098;-50
2021/09/09 08:19:35;;;;;;;8.50;4.45;;;;;;;;;;4935810;29;20027;-50
2021/09/09 08:22:01;;;;;;;39.17;19.60;;;;;;;;;;4935515;29;20515;-50
2021/09/09 08:24:27;;;;;;;26.05;14.07;;;;;;;;;;4935653;29;20043;-48
2021/09/09 08:26:53;;;;;;;10.57;3.90;;;;;;;;;;4935688;29;20079;-47
2021/09/09 08:29:19;;;;;;;14.10;3.42;;;;;;;;;;4935583;29;20035;-50
2021/09/09 08:31:45;;;;;;;11.27;3.50;;;;;;;;;;4938827;29;20083;-49
2021/09/09 08:34:11;;;;;;;14.43;7.80;;;;;;;;;;4939381;29;20043;-50
2021/09/09 08:36:37;;;;;;;22.08;9.25;;;;;;;;;;4939320;29;20091;-48
2021/09/09 08:39:04;;;;;;;17.02;6.88;;;;;;;;;;4939489;29;20065;-49
2021/09/09 08:41:30;;;;;;;15.05;7.15;;;;;;;;;;4939477;29;20036;-45
2021/09/09 08:43:56;;;;;;;8.75;3.72;;;;;;;;;;4939167;29;20508;-46
2021/09/09 08:46:22;;;;;;;27.50;10.85;;;;;;;;;;4939344;29;20031;-46
2021/09/09 08:48:49;;;;;;;13.13;3.78;;;;;;;;;;4939165;29;20481;-46
2021/09/09 08:51:16;;;;;;;18.85;5.10;;;;;;;;;;4939373;29;20099;-46
2021/09/09 08:53:43;;;;;;;7.93;2.60;;;;;;;;;;4939059;29;20043;-46
2021/09/09 08:56:09;;;;;;;12.27;2.90;;;;;;;;;;4939376;29;20032;-45
2021/09/09 08:58:36;;;;;;;23.65;9.50;;;;;;;;;;4939022;29;20107;-45
2021/09/09 09:01:12;;;;;;;11.57;3.40;;;;;;;;;;4939066;29;20495;-46
2021/09/09 09:03:45;;;;;;;25.88;11.52;;;;;;;;;;4938805;29;20075;-45
2021/09/09 09:06:28;;;;;;;8.43;4.65;;;;;;;;;;4938871;29;20039;-47
2021/09/09 09:09:04;;;;;;;10.05;3.72;;;;;;;;;;4938799;29;20155;-49
2021/09/09 09:11:32;;;;;;;10.52;3.25;;;;;;;;;;4938850;29;20026;-46
2021/09/09 09:13:59;;;;;;;10.90;2.35;;;;;;;;;;4938735;29;20032;-46
2021/09/09 09:16:25;;;;;;;8.48;2.13;;;;;;;;;;4939039;29;20102;-48
2021/09/09 09:18:52;;;;;;;14.77;2.13;;;;;;;;;;4938916;29;20370;-44
2021/09/09 09:21:19;;;;;;;26.45;5.35;;;;;;;;;;4938899;29;20032;-45
2021/09/09 09:23:48;;;;;;;8.98;2.13;;;;;;;;;;4938749;29;20503;-45
2021/09/09 09:26:16;;;;;;;9.85;2.20;;;;;;;;;;4938738;29;20035;-45
2021/09/09 09:28:45;;;;;;;12.05;2.22;;;;;;;;;;4938719;29;20517;-45
2021/09/09 09:31:23;;;;;;;12.93;2.38;;;;;;;;;;4938763;29;20039;-44
2021/09/09 09:33:59;;;;;;;9.10;2.08;;;;;;;;;;4938609;29;20027;-45
2021/09/09 09:36:25;;;;;;;8.98;2.05;;;;;;;;;;4938334;29;20111;-45
2021/09/09 09:38:53;;;;;;;8.00;2.08;;;;;;;;;;4938490;29;20489;-45
2021/09/09 09:41:20;;;;;;;11.40;1.73;;;;;;;;;;4938685;29;20024;-46
2021/09/09 09:43:57;;;;;;;8.48;1.45;;;;;;;;;;4937927;29;20036;-45
2021/09/09 09:46:31;;;;;;;4.70;2.15;;;;;;;;;;4938412;29;20098;-45
2021/09/09 09:49:17;;;;;;;5.57;1.83;;;;;;;;;;4938346;29;20366;-45
2021/09/09 09:51:45;;;;;;;7.22;1.77;;;;;;;;;;4938337;29;20491;-45
2021/09/09 09:54:12;;;;;;;8.05;1.90;;;;;;;;;;4938278;29;20095;-45
2021/09/09 09:56:39;;;;;;;5.38;1.90;;;;;;;;;;4936923;29;20023;-45
2021/09/09 09:59:05;;;;;;;7.47;2.05;;;;;;;;;;4938284;29;20020;-45
2021/09/09 10:01:32;;;;;;;9.25;2.00;;;;;;;;;;4938119;29;20038;-44
2021/09/09 10:04:00;;;;;;;6.85;2.03;;;;;;;;;;4937995;29;20114;-45
2021/09/09 10:06:27;;;;;;;11.80;5.28;;;;;;;;;;4937974;29;20102;-44
2021/09/09 10:08:53;;;;;;;13.63;4.70;;;;;;;;;;4937915;29;20504;-45
2021/09/09 10:11:19;;;;;;;6.10;2.00;;;;;;;;;;4937974;29;20028;-45
2021/09/09 10:13:46;;;;;;;7.43;2.70;;;;;;;;;;4937865;29;20028;-45
2021/09/09 10:16:15;;;;;;;13.48;6.88;;;;;;;;;;4937857;29;20179;-45
2021/09/09 10:18:42;;;;;;;26.05;11.70;;;;;;;;;;4937768;29;20031;-43
2021/09/09 10:21:08;;;;;;;14.23;5.40;;;;;;;;;;4937674;29;20106;-44
2021/09/09 10:23:34;;;;;;;16.50;7.35;;;;;;;;;;4937682;29;20027;-43
2021/09/09 10:26:02;;;;;;;17.88;5.05;;;;;;;;;;4937666;29;20080;-46
2021/09/09 10:31:01;;;;;;;11.68;4.47;;;;;;;;;;4937703;29;20103;-44
2021/09/09 10:33:30;;;;;;;8.27;2.45;;;;;;;;;;4937827;29;20445;-45
2021/09/09 10:35:57;;;;;;;5.97;2.15;;;;;;;;;;4937548;29;20078;-46
2021/09/09 10:38:23;;;;;;;5.97;3.05;;;;;;;;;;4937396;29;20031;-44
2021/09/09 10:40:49;;;;;;;18.10;6.13;;;;;;;;;;4937418;29;20079;-46
2021/09/09 10:43:37;;;;;;;14.57;7.15;;;;;;;;;;4937728;29;20075;-47
2021/09/09 10:46:09;;;;;;;9.77;3.78;;;;;;;;;;4937216;29;20059;-47
2021/09/09 10:48:35;;;;;;;11.30;2.95;;;;;;;;;;4937217;29;20035;-47
2021/09/09 10:51:11;;;;;;;17.48;5.05;;;;;;;;;;4937311;29;20028;-48
2021/09/09 10:53:38;;;;;;;5.68;3.15;;;;;;;;;;4936444;29;20031;-45
2021/09/09 10:56:10;;;;;;;11.25;3.47;;;;;;;;;;4937003;29;20385;-47
2021/09/09 10:58:36;;;;;;;34.58;22.25;;;;;;;;;;4936953;29;20107;-48
2021/09/09 11:01:02;;;;;;;5.25;2.40;;;;;;;;;;4937166;29;20055;-46
2021/09/09 11:03:42;;;;;;;9.98;2.30;;;;;;;;;;4937070;29;20040;-46
2021/09/09 11:06:12;;;;;;;4.53;2.60;;;;;;;;;;4936940;29;20079;-50
2021/09/09 11:08:39;;;;;;;10.95;1.75;;;;;;;;;;4936723;29;20051;-51
2021/09/09 11:11:08;;;;;;;5.00;1.80;;;;;;;;;;4936796;29;20032;-50
2021/09/09 11:13:36;;;;;;;10.27;1.77;;;;;;;;;;4936851;29;20106;-49
2021/09/09 11:16:17;;;;;;;6.35;1.98;;;;;;;;;;4937083;29;20384;-50
2021/09/09 11:18:43;;;;;;;4.00;1.67;;;;;;;;;;4936829;29;20035;-51
2021/09/09 11:21:10;;;;;;;6.50;1.95;;;;;;;;;;4936227;29;20082;-50
2021/09/09 11:23:36;;;;;;;8.55;1.92;;;;;;;;;;4943066;29;20024;-48
2021/09/09 11:26:14;;;;;;;15.13;2.40;;;;;;;;;;4944722;29;20126;-50
2021/09/09 11:28:40;;;;;;;5.35;1.73;;;;;;;;;;4946224;29;20078;-49
2021/09/09 11:31:09;;;;;;;4.97;1.77;;;;;;;;;;4944684;29;20030;-50
2021/09/09 11:33:52;;;;;;;6.38;1.70;;;;;;;;;;4945874;29;20799;-50
2021/09/09 11:36:19;;;;;;;6.05;1.95;;;;;;;;;;4945641;29;20104;-49
2021/09/09 11:38:45;;;;;;;3.17;1.88;;;;;;;;;;4944637;29;20107;-50
2021/09/09 11:41:13;;;;;;;5.72;1.92;;;;;;;;;;4946239;29;20125;-51
2021/09/09 11:43:40;;;;;;;6.22;1.83;;;;;;;;;;4945894;29;20036;-48
2021/09/09 11:46:07;;;;;;;82.97;48.05;;;;;;;;;;4944409;29;20102;-47
2021/09/09 11:48:33;;;;;;;4.85;3.00;;;;;;;;;;4946014;29;20369;-48
2021/09/09 11:50:59;;;;;;;18.67;7.88;;;;;;;;;;4945642;29;20100;-48
2021/09/09 11:53:26;;;;;;;49.03;25.75;;;;;;;;;;4944274;29;20028;-48
2021/09/09 11:55:52;;;;;;;8.13;2.72;;;;;;;;;;4945937;29;20019;-49
2021/09/09 11:58:38;;;;;;;6.60;2.42;;;;;;;;;;4944553;29;20111;-48
2021/09/09 12:01:05;;;;;;;19.27;9.77;;;;;;;;;;4946698;29;20106;-50
2021/09/09 12:03:32;;;;;;;22.77;11.38;;;;;;;;;;4944017;29;20034;-48
2021/09/09 12:05:59;;;;;;;6.38;3.38;;;;;;;;;;4945299;28;20027;-46
2021/09/09 12:08:25;;;;;;;30.05;17.63;;;;;;;;;;4944022;29;20401;-46
2021/09/09 12:10:51;;;;;;;7.95;2.50;;;;;;;;;;4944080;29;20043;-45
2021/09/09 12:13:30;;;;;;;6.07;2.13;;;;;;;;;;4943312;29;20510;-51
2021/09/09 12:16:09;;;;;;;37.25;20.02;;;;;;;;;;4935931;29;20090;-48
2021/09/09 12:18:35;;;;;;;37.85;16.30;;;;;;;;;;4936029;29;20020;-46
2021/09/09 12:21:29;;;;;;;24.92;14.23;;;;;;;;;;4935821;29;20042;-47
2021/09/09 12:23:56;;;;;;;5.25;2.08;;;;;;;;;;4933311;29;20054;-46
2021/09/09 12:26:23;;;;;;;7.68;1.77;;;;;;;;;;4935886;29;20031;-47
2021/09/09 12:28:49;;;;;;;6.65;2.88;;;;;;;;;;4935853;29;20086;-47
2021/09/09 12:31:15;;;;;;;10.32;4.78;;;;;;;;;;4935869;29;20055;-48
2021/09/09 12:33:51;;;;;;;13.95;5.22;;;;;;;;;;4934568;29;20047;-48
2021/09/09 12:36:20;;;;;;;10.00;2.25;;;;;;;;;;4939058;29;20535;-45
2021/09/09 12:38:52;;;;;;;5.95;1.75;;;;;;;;;;4943123;29;20487;-47
2021/09/09 12:41:20;;;;;;;5.20;1.92;;;;;;;;;;4947418;29;20019;-48
2021/09/09 12:43:50;;;;;;;12.88;1.98;;;;;;;;;;4945431;29;20066;-47
2021/09/09 12:46:40;;;;;;;5.18;1.85;;;;;;;;;;4944106;29;20023;-48
2021/09/09 12:49:27;;;;;;;4.43;1.58;;;;;;;;;;4943272;29;20028;-49
2021/09/09 12:51:56;;;;;;;7.72;1.85;;;;;;;;;;4935445;29;20027;-46
2021/09/09 12:54:22;;;;;;;6.15;1.40;;;;;;;;;;4935812;29;20031;-49
2021/09/09 12:56:49;;;;;;;6.43;1.35;;;;;;;;;;4935853;29;20410;-48
2021/09/09 12:59:23;;;;;;;4.30;1.55;;;;;;;;;;4935826;29;20465;-50
2021/09/09 13:01:50;;;;;;;5.28;1.50;;;;;;;;;;4935628;29;20104;-50
2021/09/09 13:04:16;;;;;;;5.25;1.95;;;;;;;;;;4941415;29;20039;-48
2021/09/09 13:06:42;;;;;;;6.32;2.00;;;;;;;;;;4948476;29;20035;-47
2021/09/09 13:09:08;;;;;;;12.77;2.25;;;;;;;;;;4945330;29;20118;-49
2021/09/09 13:11:34;;;;;;;6.65;1.77;;;;;;;;;;4944590;29;20019;-49
2021/09/09 13:14:01;;;;;;;8.52;1.88;;;;;;;;;;4943829;29;20023;-55
2021/09/09 13:16:27;;;;;;;9.18;1.80;;;;;;;;;;4945626;28;20417;-51
2021/09/09 13:18:53;;;;;;;10.18;2.60;;;;;;;;;;4947459;29;20431;-49
2021/09/09 13:21:26;;;;;;;8.75;2.03;;;;;;;;;;4946569;29;20046;-50
2021/09/09 13:23:53;;;;;;;4.60;1.75;;;;;;;;;;4947649;29;20545;-47
2021/09/09 13:26:19;;;;;;;11.13;1.95;;;;;;;;;;4948856;29;20035;-47
2021/09/09 13:28:45;;;;;;;4.45;1.70;;;;;;;;;;4947088;29;20019;-50
2021/09/09 13:31:15;;;;;;;4.50;1.70;;;;;;;;;;4948792;29;20027;-52
2021/09/09 13:33:42;;;;;;;5.70;1.80;;;;;;;;;;4942290;29;20030;-46
2021/09/09 13:36:08;;;;;;;6.38;1.60;;;;;;;;;;4953522;29;20105;-47
2021/09/09 13:38:34;;;;;;;5.32;1.67;;;;;;;;;;4957717;29;20031;-46
2021/09/09 13:41:00;;;;;;;5.00;1.77;;;;;;;;;;4957940;29;20357;-45
2021/09/09 13:43:26;;;;;;;4.78;1.80;;;;;;;;;;4957504;29;20027;-46
2021/09/09 13:45:53;;;;;;;5.28;1.63;;;;;;;;;;4957596;29;20031;-48
2021/09/09 13:48:19;;;;;;;6.07;1.83;;;;;;;;;;4957484;29;20031;-51
2021/09/09 13:50:45;;;;;;;7.25;1.70;;;;;;;;;;4957308;29;20049;-53
2021/09/09 13:53:11;;;;;;;10.32;2.10;;;;;;;;;;4957415;29;20034;-52
2021/09/09 13:55:37;;;;;;;9.23;1.73;;;;;;;;;;4957323;29;20058;-48
2021/09/09 13:58:03;;;;;;;4.63;1.85;;;;;;;;;;4955966;29;20377;-53
2021/09/09 14:00:30;;;;;;;7.20;2.00;;;;;;;;;;4957176;29;20106;-48
2021/09/09 14:02:56;;;;;;;9.45;2.17;;;;;;;;;;4957216;29;20034;-48
2021/09/09 14:05:22;;;;;;;5.97;1.58;;;;;;;;;;4947553;29;20449;-50
2021/09/09 14:07:48;;;;;;;3.25;1.77;;;;;;;;;;4937736;29;20413;-48
2021/09/09 14:10:16;;;;;;;7.60;1.55;;;;;;;;;;4938036;29;20493;-48
2021/09/09 14:12:42;;;;;;;6.50;2.00;;;;;;;;;;4937819;29;20050;-47
2021/09/09 14:15:09;;;;;;;5.63;1.65;;;;;;;;;;4937902;29;20035;-48
2021/09/09 14:17:36;;;;;;;6.30;1.70;;;;;;;;;;4937763;29;20027;-47
2021/09/09 14:20:03;;;;;;;3.42;2.00;;;;;;;;;;4937728;29;20034;-49
2021/09/09 14:22:30;;;;;;;7.47;1.70;;;;;;;;;;4937814;29;20037;-47
2021/09/09 14:24:56;;;;;;;5.20;1.80;;;;;;;;;;4937790;29;20397;-48
2021/09/09 14:27:23;;;;;;;9.18;1.85;;;;;;;;;;4937739;29;20035;-48
2021/09/09 14:29:49;;;;;;;10.30;1.90;;;;;;;;;;4937451;29;20038;-47
2021/09/09 14:32:15;;;;;;;8.43;2.00;;;;;;;;;;4937484;29;20024;-47
2021/09/09 14:34:41;;;;;;;6.57;2.15;;;;;;;;;;4936263;29;20403;-48
2021/09/09 14:37:08;;;;;;;8.90;2.35;;;;;;;;;;4937201;29;20103;-48
2021/09/09 14:39:36;;;;;;;3.67;1.75;;;;;;;;;;4937533;29;20038;-49